Timeline UpdatesTrip UpdatesNews PostsPvt PostsTravel TipsAdmin PostsConv PostsFollowed PostsChat RequestsBlog PostsPNR Posts

Disclaimer
Search
 
 
Sat Aug 23, 2014 05:06:18 ISTHomeTrainsΣChainsAtlasPNRForumGalleryNewsFAQTripsMembersLoginFeedback
No Recent News for this Train
Other Trains in the News **new
Latest...
.
Sat Feb 01, 2014 (02:24PM)
⇐ Return Journey: Train# 18233

18234/Narmada Express

Nov 09 2013 (8:39PM)
Change Departure Station:
Change Arrival Station:
Post a Train Travel TipPost a Train Travel Tip **new
Post a Comment/Question/Picture/VideoPost a Comment/Question/Picture/Video
Pantry/Catering
✕ NO Pantry Car
✓ Catering Avbl
Loco/Rake Reversals
KTE/Katni Junction (6); ET/Itarsi Junction (7); UJN/Ujjain Junction (8);
RSA - Rake Sharing
No RSA..
Rake/Coach Composition
ENG-SLR-GS-GS-GS-S1-S2-S3-S4-S5-S6-S7-S8-S9-S10-A1-HA1-B1-B2-GS-GS-SLR (BSP-KTE), (ET-UJN); ENG-SLR-GS-GS-B2-B1-HA1-A1-S10-S9-S8-S7-S6-S5-S4-S3-S2-S1-GS-GS-GS-SLR (KTE-ET), (UJN,INDB).
Loco
ET WAM 4/6p (BSP-KTE) ET WDP 4/WDM-3A (KTE-ET) ET WAM 4/6p (ET-INDB)
News    PNR    Forum    Time-Table    Availability    Fare Chart    Map    Arr/Dep History    Trips    Gallery    ΣChains    X/O    Timeline    
Travel Time: 12h 49m    41 halts    Distance: 511 km    Avg Speed: 39 km/hr
Type: Mail/Express
Zone: SECR/South East Central
Departs @ 09:55 (Avg 2m late)
Platform# 8
SMTWTFS
Bilaspur Junction/BSP 
Arrives @ 22:44 (Avg 39m late)
Platform# 2
SMTWTFS
Kareli/KY 

41 halts. 60 intermediate Stations between Bilaspur Junction and Kareli

Show ALL intermediate Stations  Show Old Time-Table

#CodeStation NameX/OArrivesAvgDepartsAvgHaltPFDay#KmSpeedElevZoneAddress
1BSP»Bilaspur Junction (8)»  -09:55+2810.039271mSECRBilaspur, Chhattisgarh
2USLUslapur (3)  10:08+610:10+72m--18.676272mSECRBilaspur, Chhattisgarh
3GTKGhutkuX  10:16+1110:17+121m--116.260288mSECRBilaspur, Chhattisgarh
4KLTRKalmitarX  10:25+1310:26+131m--124.243300mSECRUsalapur, Chhattisgarh
5KGBKargi RoadX  10:37+1110:38+131m--132.054327mSECRBilaspur, Chhattisgarh
6SLKRSalkaroadX  10:47+1510:48+171m--140.242333mSECRGhutku, Chhattisgarh
7BIGBelgahna  10:59+1711:00+181m--147.865327mSECRBilaspur, Chhattisgarh
8TGQTenganmada  11:09+1911:10+231m--157.657367mSECRBelgahna, Chhattisgarh
9KGSKhongsaraX  11:19+2411:20+271m--166.147378mSECRBhanwar, Chhattisgarh
10BHTKBhanwar TonkX  11:36+2811:37+291m--178.646455mSECRKhodri, Chhattisgarh
11KOIKhodri  11:52+3011:53+351m--190.131558mSECRBilaspur, Chhattisgarh
12PNDPendra Road  12:15+3312:20+355m--1101.584620mSECRBilaspur district, Chhattisgarh
13HRBHarri  12:26+3912:27+421m--1110.071595mSECRVenkatnagar, Madhya Pradesh
14VKRVenkatnagar  12:36+4312:37+451m--1120.657549mSECRPendra Rd, Madhya Pradesh
15NIQNigaura  12:45+4612:46+501m--1128.271547mSECRAnuppur, Madhya Pradesh
16JTIJaithari  12:55+5012:56+521m--1138.865522mSECRAnuppur, Madhya Pradesh
17CLFChhulhaX  13:04+5313:05+561m--1147.621488mSECRMauhari, Madhya Pradesh
18APRAnuppur Junction (3)X  13:20+4913:25+515m--1152.785487mSECRAnuppur, Madhya Pradesh
19AALAmlai  13:34+5513:35+571m41165.458495mSECRAnuppur, Madhya Pradesh
20BUHBurhar  13:44+5713:45+591m21174.158494mSECRBurhar, Madhya Pradesh
21SNGPSinghpur  13:59+1:0014:00+1:011m--1187.77502mSECRBurhar, Madhya Pradesh
22SDLShahdolX  14:50+1915:00+1910m11193.666466mSECR, Madhya Pradesh
23BRSBirsinghpur  15:34+2815:35+291m21231.054461mSECRPali, Madhya Pradesh
24NRZBNowrozabad  15:43+2815:44+301m--1238.260458mSECRNational Highway 78, Madhya Pradesh
25KKIKarkeli  15:54+2915:55+301m--1248.250471mSECRUmaria, Madhya Pradesh
26UMRUmaria (3)X  16:10+2716:15+275m--1260.876469mSECRUmaria, Madhya Pradesh
27CHDChandia Road (1)X  16:30+3116:31+341m11279.845406mSECRNational Highway 78, Madhya Pradesh
28RPDRupaundX  16:54+3016:55+321m--1297.115417mSECRJhalwara, Madhya Pradesh
29JLWJhalwaraO  17:41+317:42+61m--1308.915406mSECRNational Highway 78, Madhya Pradesh
30KTEKatni Junction (6)X18:25+1018:45+1720m31319.4132387mWCRKatni, Madhya Pradesh
31NWRNiwar (2)  18:51+3218:52+361m--1332.658412mWCRPipraundh, Madhya Pradesh
32SNRRSansarpur (2)X  19:00-19:01-1m--1340.452436mWCRNational Highway 7, Madhya Pradesh
33SBDSleemanabad Road (2)X  19:09+3619:10+371m--1347.363434mWCRSleemanabad, Madhya Pradesh
34DDCEDundi (2)X  19:19+3819:20+431m--1356.889415mWCRDundi, Madhya Pradesh
35SHRSihora Road (2)X  19:30+4619:32+462m--1371.748388mWCRJabalpur, Madhya Pradesh
36GSPRGosalpur (2)  19:46+4419:47+461m--1382.842396mWCRJabalpur, Madhya Pradesh
37DOEDeori (2)  20:02+4220:03+441m--1393.333392mWCRJabalpur, Madhya Pradesh
38ADTLAdhartal (2)  20:19+3820:20+451m--1402.116393mWCRJabalpur, Madhya Pradesh
39JBPJabalpur Junction (4)X  20:50+3321:00+3710m11410.123416mWCRJabalpur, Madhya Pradesh
40MMLMadan Mahal (3)  21:09+3721:11+372m11413.688428mWCRJabalpur, Madhya Pradesh
41SRIDShridham (3)X  21:45+4221:47+472m31463.348373mWCRShridham, Madhya Pradesh
42NUNarsinghpur (2)X  22:26+4222:28+432m21494.361365mWCRNarsimhapur, Madhya Pradesh
43KY•Kareli (2)•  22:44+3922:45+401m21510.780361mWCRKareli, Madhya Pradesh
44GARGadarwara (2)XO  23:06+4423:07+481m21538.793352mWCRNarsinghpur, Madhya Pradesh
45SCKRSalichauka Road (2)  23:16+5023:17+531m--1552.647355mWCRGadarwara, Madhya Pradesh
46PPIPipariya (3)X  00:02+3500:04+352m22588.166338mWCRPiparia, Madhya Pradesh
47SGPSohagpur (2)  00:20+3400:21+361m--2605.838340mWCRSohagpur, Madhya Pradesh
48BGTABagratawa (2)X  00:57+2000:58+231m--2628.830338mWCRBagra Tawa, Madhya Pradesh
49ETItarsi Junction (7)X01:50+1702:05+2715m42655.357329mWCRItarsi 461111, Madhya Pradesh
50HBDHoshangabad (2)X  02:24+3302:25+341m--2673.451308mWCRHoshangabad, Madhya Pradesh
51ODGObaidulla Ganj  03:09+3903:10+391m22711.158 WCRObaidullaganj Raisen Dist., Madhya Pradesh
52MDDPMandi Dip (1)X  03:24+3903:25+401m12724.654 WCRMandideep, Madhya Pradesh
53HBJBhopal HabibGanj (5)  03:43+4203:44+351m12740.712496mWCRHabibGanj, Madhya Pradesh
54BPLBhopal Junction (6)  04:15+1904:25+2510m42747.029497mWCRBhopal, Madhya Pradesh
55BIHBairagarh (2)X  04:46+3604:47+371m12757.268522mWRBhopal, Madhya Pradesh
56SEHSehore (2)X  05:12+3505:13+361m12785.770500mWRMP 466001, Madhya Pradesh
57KPPKalapipal (2)  05:38+3405:39+351m--2814.758487mWRState Highway 41, Madhya Pradesh
58SJPShujalpur (3)  05:52+3605:53+371m--2827.360453mWRShujalpur, Madhya Pradesh
59AKDAkodia (2)  06:06+3606:07+361m--2840.472460mWRDist. Shajapur, Madhya Pradesh
60KSHKali Sindh (2)X  06:22+3706:23+371m--2858.361443mWRShajapur, Madhya Pradesh
61BCHBerchha (2)X  06:35+3706:36+381m--2870.554490mWRShajapur, Madhya Pradesh
62MKCMaksi Junction (3)X  06:57+3706:59+362m--2889.364513mWRMakshi, Madhya Pradesh
63TANTarana Road  07:08+3707:09+381m--2898.931498mWRMaksi, Madhya Pradesh
64UJNUjjain Junction (8)08:10+1108:30+1820m--2930.423492mWRUjjain 456001, Madhya Pradesh
65VRGVikram Nagar (2)  08:44+2408:45+321m--2935.825503mWRUjjain, Madhya Pradesh
66KDHAKarchhaX  09:15+1609:16+241m--2948.126514mWRState Highway 18, Madhya Pradesh
67UDMUndasa Madhopur  09:29-09:30-1m--2953.787528mWRState Highway 18, Madhya Pradesh
68NRGRNaranjipur (1)  09:35+2009:36+241m12960.942537mWRDewas, Madhya Pradesh
69DWXDewas Junction (2)  09:50+2309:52+292m--2970.832541mWRDewas, Madhya Pradesh
70BLAXBarlaiX  10:18+1510:19+201m--2984.535519mWRIndore, Madhya Pradesh
71MGGMangliyagaon (2)  10:36+1410:37+161m--2994.553534mWRMangilya, Madhya Pradesh
72LMNRLaxmibai Nagar (3)  10:50+1810:51+201m--21006.023543mWRIndore, Madhya Pradesh
73INDBIndore Junction BG (3)  11:00+16-321009.5-552mWRIndore 452001, Madhya Pradesh
Scroll to Top
Scroll to Bottom